Time;durP1;ratioP1;P1;durP2;ratioP2;P2;SDS_P1;SDS_P2;PMS_P1;PMS_P2;Temp;Humidity;BMP_temperature;BMP_pressure;BME280_temperature;BME280_humidity;BME280_pressure;Samples;Min_cycle;Max_cycle;Signal;HPM_P1;HPM_P2
2023/11/27 00:00:14;;;;;;;20.80;2.50;;;5.70;99.90;;;;;;5039257;28;20158;-83
2023/11/27 00:02:40;;;;;;;21.03;3.83;;;5.70;99.90;;;;;;5021941;28;20512;-83
2023/11/27 00:05:06;;;;;;;22.30;3.33;;;5.80;99.90;;;;;;5021771;28;20190;-83
2023/11/27 00:07:31;;;;;;;20.17;2.80;;;5.70;99.90;;;;;;5039315;28;20173;-83
2023/11/27 00:09:57;;;;;;;21.80;3.07;;;5.70;99.90;;;;;;5039019;28;20432;-83
2023/11/27 00:12:26;;;;;;;22.97;3.70;;;5.70;99.90;;;;;;5039488;28;20224;-83
2023/11/27 00:14:52;;;;;;;24.55;3.95;;;5.60;99.90;;;;;;5038729;28;20262;-83
2023/11/27 00:17:18;;;;;;;21.47;3.63;;;5.70;99.90;;;;;;5039523;28;20193;-83
2023/11/27 00:19:43;;;;;;;19.47;2.90;;;5.70;99.90;;;;;;5038746;28;20166;-83
2023/11/27 00:22:09;;;;;;;20.50;3.93;;;5.60;99.90;;;;;;5038680;28;20173;-83
2023/11/27 00:24:37;;;;;;;21.97;4.07;;;5.60;99.90;;;;;;5038730;28;20328;-83
2023/11/27 00:27:03;;;;;;;19.90;2.97;;;5.60;99.90;;;;;;5020975;28;20205;-83
2023/11/27 00:29:29;;;;;;;23.93;3.63;;;5.70;99.90;;;;;;5021413;28;20247;-83
2023/11/27 00:31:54;;;;;;;22.40;3.83;;;5.80;99.90;;;;;;5020846;28;20209;-83
2023/11/27 00:34:20;;;;;;;18.77;2.77;;;5.80;99.90;;;;;;5038789;28;20240;-83
2023/11/27 00:36:46;;;;;;;19.87;2.97;;;5.80;99.90;;;;;;5020495;28;20169;-83
2023/11/27 00:39:11;;;;;;;20.50;4.07;;;5.80;99.90;;;;;;5038194;28;20166;-83
2023/11/27 00:41:37;;;;;;;28.77;4.00;;;5.80;99.90;;;;;;5039096;28;20163;-83
2023/11/27 00:44:03;;;;;;;20.33;3.75;;;5.70;99.90;;;;;;5039360;28;20190;-83
2023/11/27 00:46:29;;;;;;;23.27;3.67;;;5.80;99.90;;;;;;5039055;28;20670;-83
2023/11/27 00:48:55;;;;;;;21.90;3.47;;;5.80;99.90;;;;;;5038398;28;20818;-83
2023/11/27 00:51:21;;;;;;;19.40;3.57;;;5.90;99.90;;;;;;5020992;28;20656;-83
2023/11/27 00:53:46;;;;;;;19.37;3.10;;;5.90;99.90;;;;;;5020581;28;20185;-83
2023/11/27 00:56:13;;;;;;;23.93;3.97;;;5.80;99.90;;;;;;5038496;28;20444;-83
2023/11/27 00:58:38;;;;;;;20.85;3.40;;;5.80;99.90;;;;;;5020115;28;20174;-83
2023/11/27 01:01:07;;;;;;;20.60;3.30;;;5.80;99.90;;;;;;5020857;28;20565;-83
2023/11/27 01:03:32;;;;;;;18.88;2.97;;;5.70;99.90;;;;;;5038442;28;20188;-83
2023/11/27 01:05:58;;;;;;;24.37;4.33;;;5.70;99.90;;;;;;5039302;28;20225;-83
2023/11/27 01:08:24;;;;;;;23.42;3.35;;;5.80;99.90;;;;;;5039242;28;20170;-83
2023/11/27 01:10:51;;;;;;;20.67;3.37;;;5.80;99.90;;;;;;5021429;28;20178;-83
2023/11/27 01:13:17;;;;;;;20.80;3.97;;;5.80;99.90;;;;;;5039847;28;20190;-83
2023/11/27 01:15:42;;;;;;;20.87;3.57;;;5.80;99.90;;;;;;5039733;28;20553;-83
2023/11/27 01:18:08;;;;;;;21.67;4.03;;;5.70;99.90;;;;;;5038283;28;20712;-83
2023/11/27 01:20:33;;;;;;;26.70;4.63;;;5.80;99.90;;;;;;5039088;28;20165;-84
2023/11/27 01:22:59;;;;;;;22.27;4.97;;;5.70;99.90;;;;;;5039011;28;20673;-84
2023/11/27 01:25:25;;;;;;;22.87;3.83;;;5.70;99.90;;;;;;5039065;28;20173;-83
2023/11/27 01:27:51;;;;;;;21.13;3.50;;;5.80;99.90;;;;;;5038922;28;20444;-83
2023/11/27 01:30:20;;;;;;;22.50;3.80;;;5.80;99.90;;;;;;5037863;28;20189;-83
2023/11/27 01:32:46;;;;;;;20.50;3.50;;;5.70;99.90;;;;;;5038299;28;20405;-83
2023/11/27 01:35:12;;;;;;;21.65;3.50;;;5.60;99.90;;;;;;5037739;28;20201;-83
2023/11/27 01:37:38;;;;;;;19.87;3.60;;;5.70;99.90;;;;;;5037590;28;20163;-83
2023/11/27 01:40:03;;;;;;;21.10;3.73;;;5.70;99.90;;;;;;5020105;28;20412;-83
2023/11/27 01:42:29;;;;;;;25.47;4.13;;;5.80;99.90;;;;;;5037095;28;20172;-83
2023/11/27 01:44:55;;;;;;;22.40;4.30;;;5.80;99.90;;;;;;5037138;28;20433;-83
2023/11/27 01:47:24;;;;;;;22.83;3.85;;;5.80;99.90;;;;;;5019690;28;20495;-83
2023/11/27 01:49:50;;;;;;;23.92;4.22;;;5.80;99.90;;;;;;5036972;28;20169;-83
2023/11/27 01:52:17;;;;;;;19.77;3.50;;;5.80;99.90;;;;;;5037154;28;20174;-83
2023/11/27 01:54:43;;;;;;;21.20;4.07;;;5.80;99.90;;;;;;5037111;28;20197;-83
2023/11/27 01:57:15;;;;;;;26.33;4.80;;;5.80;99.90;;;;;;5037497;28;20178;-83
2023/11/27 01:59:46;;;;;;;29.85;4.45;;;5.70;99.90;;;;;;5019606;28;20531;-83
2023/11/27 02:02:14;;;;;;;19.35;3.13;;;5.70;99.90;;;;;;5037457;28;20620;-83
2023/11/27 02:05:17;;;;;;;20.55;3.20;;;5.70;99.90;;;;;;5036958;28;20197;-83
2023/11/27 02:07:52;;;;;;;20.83;3.90;;;5.80;99.90;;;;;;5037197;28;20178;-83
2023/11/27 02:10:17;;;;;;;21.50;3.65;;;5.80;99.90;;;;;;5019434;28;20161;-83
2023/11/27 02:12:43;;;;;;;20.10;4.30;;;5.80;99.90;;;;;;5074536;22;20170;-83
2023/11/27 02:15:09;;;;;;;21.13;3.70;;;5.80;99.90;;;;;;5242996;22;20277;-85
2023/11/27 02:17:35;;;;;;;22.90;4.15;;;5.80;99.90;;;;;;5085407;22;20222;-83
2023/11/27 02:20:00;;;;;;;25.77;3.70;;;5.80;99.90;;;;;;5043738;28;20162;-83
2023/11/27 02:22:26;;;;;;;21.03;3.67;;;5.70;99.90;;;;;;5043338;28;20170;-83
2023/11/27 02:24:52;;;;;;;19.93;4.10;;;5.60;99.90;;;;;;5043073;28;20194;-83
2023/11/27 02:27:18;;;;;;;23.20;4.70;;;5.70;99.90;;;;;;5043301;28;20173;-83
2023/11/27 02:29:43;;;;;;;20.50;4.10;;;5.90;99.90;;;;;;5025243;28;20174;-83
2023/11/27 02:32:09;;;;;;;20.87;3.97;;;5.70;99.90;;;;;;5043504;28;20184;-83
2023/11/27 02:34:34;;;;;;;23.90;3.80;;;5.70;99.90;;;;;;5025470;28;20197;-83
2023/11/27 02:37:00;;;;;;;22.03;3.93;;;5.70;99.90;;;;;;5025433;28;20173;-83
2023/11/27 02:39:26;;;;;;;21.87;3.50;;;5.70;99.90;;;;;;5025580;28;20170;-83
2023/11/27 02:41:55;;;;;;;21.30;4.50;;;5.80;99.90;;;;;;5043400;28;20689;-83
2023/11/27 02:44:21;;;;;;;20.38;2.75;;;5.80;99.90;;;;;;5042720;28;20196;-83
2023/11/27 02:46:49;;;;;;;23.00;4.43;;;5.80;99.90;;;;;;5043423;28;20197;-83
2023/11/27 02:49:15;;;;;;;22.50;4.05;;;5.80;99.90;;;;;;5042445;28;20170;-83
2023/11/27 02:51:43;;;;;;;19.70;3.43;;;5.80;99.90;;;;;;5042759;28;20168;-83
2023/11/27 02:54:10;;;;;;;20.90;3.30;;;5.80;99.90;;;;;;5024644;28;20228;-83
2023/11/27 02:56:36;;;;;;;24.58;3.60;;;5.70;99.90;;;;;;5042841;28;20291;-83
2023/11/27 02:59:02;;;;;;;20.48;4.50;;;5.70;99.90;;;;;;5025477;28;20185;-83
2023/11/27 03:01:28;;;;;;;24.30;5.80;;;5.70;99.90;;;;;;5044016;28;20158;-83
2023/11/27 03:03:54;;;;;;;25.87;4.07;;;5.70;99.90;;;;;;5099311;22;20429;-83
2023/11/27 03:06:19;;;;;;;21.67;4.10;;;5.60;99.90;;;;;;5046488;28;20189;-83
2023/11/27 03:08:48;;;;;;;21.90;4.27;;;5.60;99.90;;;;;;5046979;28;20409;-83
2023/11/27 03:11:14;;;;;;;20.95;4.00;;;5.60;99.90;;;;;;5045817;28;20181;-83
2023/11/27 03:13:40;;;;;;;23.13;4.10;;;5.50;99.90;;;;;;5046294;28;20178;-83
2023/11/27 03:16:06;;;;;;;28.55;4.70;;;5.50;99.90;;;;;;5028503;28;20440;-83
2023/11/27 03:18:32;;;;;;;22.83;4.13;;;5.50;99.90;;;;;;5046735;28;20173;-83
2023/11/27 03:20:57;;;;;;;19.97;3.80;;;5.50;99.90;;;;;;5046141;28;20408;-83
2023/11/27 03:23:24;;;;;;;21.70;4.00;;;5.50;99.90;;;;;;5046313;28;20197;-83
2023/11/27 03:25:57;;;;;;;20.98;3.92;;;5.50;99.90;;;;;;5046021;28;20162;-83
2023/11/27 03:28:23;;;;;;;19.05;3.30;;;5.50;99.90;;;;;;5046328;28;20176;-83
2023/11/27 03:30:49;;;;;;;24.52;4.28;;;5.60;99.90;;;;;;5046929;28;20161;-83
2023/11/27 03:33:15;;;;;;;21.37;3.87;;;5.60;99.90;;;;;;5046402;28;20190;-83
2023/11/27 03:35:47;;;;;;;21.10;3.90;;;5.60;99.90;;;;;;5046762;28;20189;-83
2023/11/27 03:38:12;;;;;;;20.95;3.97;;;5.60;99.90;;;;;;5046788;28;20229;-83
2023/11/27 03:40:38;;;;;;;24.33;3.70;;;5.50;99.90;;;;;;5046498;28;20166;-83
2023/11/27 03:43:03;;;;;;;27.53;4.07;;;5.50;99.90;;;;;;5045978;28;20293;-83
2023/11/27 03:45:29;;;;;;;20.37;3.90;;;5.40;99.90;;;;;;5046171;28;20166;-83
2023/11/27 03:47:55;;;;;;;21.10;3.87;;;5.40;99.90;;;;;;5046095;28;20532;-83
2023/11/27 03:50:21;;;;;;;22.30;3.80;;;5.40;99.90;;;;;;5046003;28;20639;-83
2023/11/27 03:52:47;;;;;;;21.67;4.63;;;5.40;99.90;;;;;;5046354;28;20176;-83
2023/11/27 03:55:13;;;;;;;21.42;3.97;;;5.30;99.90;;;;;;5044930;28;20444;-83
2023/11/27 03:57:39;;;;;;;20.33;3.53;;;5.40;99.90;;;;;;5028097;28;20177;-83
2023/11/27 04:00:09;;;;;;;20.57;3.93;;;5.30;99.90;;;;;;5045495;28;20638;-83
2023/11/27 04:02:34;;;;;;;20.35;4.22;;;5.30;99.90;;;;;;5045270;28;20225;-84
2023/11/27 04:05:01;;;;;;;21.40;4.00;;;5.20;99.90;;;;;;5044537;28;20201;-83
2023/11/27 04:07:27;;;;;;;23.13;3.47;;;5.20;99.90;;;;;;5045339;28;20233;-83
2023/11/27 04:09:53;;;;;;;22.83;5.03;;;5.30;99.90;;;;;;5044931;28;20269;-83
2023/11/27 04:12:18;;;;;;;22.67;3.77;;;5.30;99.90;;;;;;5045702;28;20170;-83
2023/11/27 04:14:44;;;;;;;25.57;4.67;;;5.30;99.90;;;;;;5044578;28;20190;-83
2023/11/27 04:17:11;;;;;;;20.40;4.00;;;5.40;99.90;;;;;;5045356;28;20229;-83
2023/11/27 04:19:37;;;;;;;23.02;5.22;;;5.30;99.90;;;;;;5045369;28;20189;-83
2023/11/27 04:22:03;;;;;;;20.63;4.50;;;5.20;99.90;;;;;;5027938;28;20174;-83
2023/11/27 04:24:28;;;;;;;27.50;4.70;;;5.30;99.90;;;;;;5045298;28;20197;-83
2023/11/27 04:26:55;;;;;;;21.07;4.10;;;5.30;99.90;;;;;;5045764;28;20411;-83
2023/11/27 04:29:21;;;;;;;21.35;4.90;;;5.30;99.90;;;;;;5027384;28;20197;-83
2023/11/27 04:31:47;;;;;;;20.20;3.90;;;5.30;99.90;;;;;;5044752;28;20177;-83
2023/11/27 04:34:13;;;;;;;23.97;4.47;;;5.30;99.90;;;;;;5045186;28;20565;-83
2023/11/27 04:36:38;;;;;;;22.73;4.27;;;5.30;99.90;;;;;;5044823;28;20531;-83
2023/11/27 04:39:10;;;;;;;22.83;4.10;;;5.20;99.90;;;;;;5044707;28;20635;-83
2023/11/27 04:41:38;;;;;;;20.85;4.00;;;5.30;99.90;;;;;;5026830;28;20158;-83
2023/11/27 04:44:06;;;;;;;24.63;4.72;;;5.30;99.90;;;;;;5026609;28;20185;-83
2023/11/27 04:46:32;;;;;;;22.15;4.43;;;5.20;99.90;;;;;;5044541;28;20696;-83
2023/11/27 04:48:58;;;;;;;20.90;3.53;;;5.30;99.90;;;;;;5026224;28;20166;-83
2023/11/27 04:51:23;;;;;;;25.90;3.87;;;5.30;99.90;;;;;;5045085;28;20177;-83
2023/11/27 04:53:49;;;;;;;20.17;3.33;;;5.30;99.90;;;;;;5044379;28;20186;-83
2023/11/27 04:56:15;;;;;;;20.73;4.90;;;5.30;99.90;;;;;;5045038;28;20220;-83
2023/11/27 04:58:41;;;;;;;21.53;4.90;;;5.30;99.90;;;;;;5044315;28;20296;-83
2023/11/27 05:01:07;;;;;;;22.48;4.80;;;5.30;99.90;;;;;;5027045;28;20195;-82
2023/11/27 05:03:32;;;;;;;26.37;4.43;;;5.20;99.90;;;;;;5043791;28;20182;-82
2023/11/27 05:05:58;;;;;;;23.03;4.70;;;5.20;99.90;;;;;;5043512;28;20186;-81
2023/11/27 05:08:25;;;;;;;23.37;4.40;;;5.20;99.90;;;;;;5043455;28;20220;-82
2023/11/27 05:10:51;;;;;;;23.92;4.47;;;5.20;99.90;;;;;;5042754;28;20658;-81
2023/11/27 05:13:17;;;;;;;23.90;4.10;;;5.20;99.90;;;;;;5043434;28;20186;-81
2023/11/27 05:15:43;;;;;;;21.77;4.37;;;5.20;99.90;;;;;;5042167;28;20975;-81
2023/11/27 05:18:08;;;;;;;22.53;4.63;;;5.10;99.90;;;;;;5024756;28;20194;-81
2023/11/27 05:20:34;;;;;;;23.13;3.87;;;5.10;99.90;;;;;;5042432;28;20409;-81
2023/11/27 05:23:02;;;;;;;21.60;4.43;;;5.20;99.90;;;;;;5042086;28;20244;-80
2023/11/27 05:25:28;;;;;;;20.80;4.18;;;5.30;99.90;;;;;;5039962;28;20170;-81
2023/11/27 05:27:57;;;;;;;20.97;3.73;;;5.30;99.90;;;;;;5041510;28;20227;-81
2023/11/27 05:30:23;;;;;;;24.85;4.13;;;5.20;99.90;;;;;;5040428;28;20468;-81
2023/11/27 05:32:52;;;;;;;21.23;3.00;;;5.20;99.90;;;;;;5040547;28;20200;-81
2023/11/27 05:35:18;;;;;;;23.50;3.67;;;5.30;99.90;;;;;;5040611;28;20257;-81
2023/11/27 05:37:43;;;;;;;23.00;3.83;;;5.20;99.90;;;;;;5022481;28;20209;-81
2023/11/27 05:40:10;;;;;;;23.30;3.77;;;5.30;99.90;;;;;;5040389;28;20404;-80
2023/11/27 05:42:39;;;;;;;20.65;3.58;;;5.20;99.90;;;;;;5022550;28;20165;-80
2023/11/27 05:45:11;;;;;;;20.90;3.65;;;5.30;99.90;;;;;;5039817;28;20212;-80
2023/11/27 05:47:39;;;;;;;20.08;2.78;;;5.30;99.90;;;;;;5039925;28;20150;-80
2023/11/27 05:50:05;;;;;;;21.83;3.55;;;5.10;99.90;;;;;;5039185;28;20516;-81
2023/11/27 05:52:31;;;;;;;22.98;3.40;;;5.00;99.90;;;;;;5021748;28;20192;-80
2023/11/27 05:54:57;;;;;;;22.27;2.73;;;5.00;99.90;;;;;;5038465;28;20272;-80
2023/11/27 05:57:22;;;;;;;24.03;3.43;;;5.10;99.90;;;;;;5021063;28;20669;-80
2023/11/27 05:59:48;;;;;;;22.33;3.20;;;5.00;99.90;;;;;;5038811;28;20885;-80
2023/11/27 06:02:14;;;;;;;22.40;4.13;;;4.90;99.90;;;;;;5037786;28;20168;-80
2023/11/27 06:04:43;;;;;;;22.70;3.53;;;4.90;99.90;;;;;;5037929;28;20224;-80
2023/11/27 06:09:39;;;;;;;22.52;3.03;;;5.00;99.90;;;;;;5034383;28;20200;-80
2023/11/27 06:12:05;;;;;;;24.63;3.50;;;5.00;99.90;;;;;;5036409;28;20165;-80
2023/11/27 06:14:32;;;;;;;22.00;3.22;;;4.90;99.90;;;;;;5035936;28;20247;-80
2023/11/27 06:16:59;;;;;;;24.48;3.75;;;4.80;99.90;;;;;;5018785;28;20192;-80
2023/11/27 06:19:25;;;;;;;23.35;3.75;;;4.70;99.90;;;;;;5036494;28;20166;-80
2023/11/27 06:21:50;;;;;;;23.20;3.43;;;4.70;99.90;;;;;;5036057;28;20646;-80
2023/11/27 06:26:44;;;;;;;25.25;4.80;;;4.60;99.90;;;;;;5105930;22;20225;-79
2023/11/27 06:29:10;;;;;;;25.70;3.87;;;4.50;99.90;;;;;;5035819;28;20165;-80
2023/11/27 06:31:35;;;;;;;26.10;4.50;;;4.50;99.90;;;;;;5035426;28;20511;-80
2023/11/27 06:34:01;;;;;;;26.63;4.40;;;4.50;99.90;;;;;;5018236;28;20192;-80
2023/11/27 06:36:27;;;;;;;22.90;4.00;;;4.50;99.90;;;;;;5035198;28;20197;-80
2023/11/27 06:38:52;;;;;;;24.47;3.80;;;4.40;99.90;;;;;;5035433;28;20170;-80
2023/11/27 06:41:18;;;;;;;21.60;3.70;;;4.40;99.90;;;;;;5035642;28;20225;-80
2023/11/27 06:43:44;;;;;;;28.97;4.70;;;4.30;99.90;;;;;;5035272;28;20189;-80
2023/11/27 06:46:11;;;;;;;31.30;4.40;;;4.30;99.90;;;;;;5034394;28;20224;-79
2023/11/27 06:48:40;;;;;;;28.20;4.47;;;4.30;99.90;;;;;;5033969;28;20198;-80
2023/11/27 06:51:07;;;;;;;23.25;3.83;;;4.30;99.90;;;;;;5017460;28;20180;-80
2023/11/27 06:53:39;;;;;;;26.88;4.80;;;4.20;99.90;;;;;;5016543;28;20690;-80
2023/11/27 06:56:05;;;;;;;24.05;3.90;;;4.20;99.90;;;;;;5034658;28;20712;-80
2023/11/27 06:58:31;;;;;;;21.20;3.80;;;4.30;99.90;;;;;;5034728;28;20588;-80
2023/11/27 07:00:58;;;;;;;25.20;3.70;;;4.20;99.90;;;;;;5034891;28;20191;-79
2023/11/27 07:03:35;;;;;;;25.10;4.05;;;4.20;99.90;;;;;;5034832;28;20210;-79
2023/11/27 07:06:01;;;;;;;25.75;4.80;;;4.10;99.90;;;;;;5035089;28;20150;-79
2023/11/27 07:08:27;;;;;;;23.70;3.90;;;4.20;99.90;;;;;;5035003;28;20172;-79
2023/11/27 07:10:53;;;;;;;23.80;4.07;;;4.10;99.90;;;;;;5035097;28;20489;-79
2023/11/27 07:13:19;;;;;;;27.87;4.80;;;4.10;99.90;;;;;;5035289;28;20505;-79
2023/11/27 07:15:44;;;;;;;23.30;4.60;;;4.10;99.90;;;;;;5034805;28;20439;-79
2023/11/27 07:18:10;;;;;;;22.50;4.07;;;4.20;99.90;;;;;;5035120;28;20172;-79
2023/11/27 07:20:37;;;;;;;21.87;3.80;;;4.20;99.90;;;;;;5034707;28;20161;-79
2023/11/27 07:23:03;;;;;;;22.58;4.35;;;4.20;99.90;;;;;;5017201;28;20177;-79
2023/11/27 07:25:29;;;;;;;23.92;4.07;;;4.10;99.90;;;;;;5034809;28;20530;-79
2023/11/27 07:27:56;;;;;;;23.07;4.00;;;4.20;99.90;;;;;;5034657;28;20186;-79
2023/11/27 07:30:21;;;;;;;23.38;3.05;;;4.10;99.90;;;;;;5035287;28;20580;-79
2023/11/27 07:32:47;;;;;;;23.87;4.17;;;4.20;99.90;;;;;;5017035;28;20179;-79
2023/11/27 07:35:13;;;;;;;22.77;3.13;;;4.20;99.90;;;;;;5034865;28;20553;-79
2023/11/27 07:37:40;;;;;;;22.20;3.60;;;4.10;99.90;;;;;;5034450;28;20166;-79
2023/11/27 07:40:14;;;;;;;21.05;2.70;;;4.10;99.90;;;;;;5034709;28;20462;-79
2023/11/27 07:42:41;;;;;;;21.30;2.97;;;4.10;99.90;;;;;;5017367;28;20165;-79
2023/11/27 07:45:07;;;;;;;23.48;3.28;;;4.00;99.90;;;;;;5034382;28;20659;-79
2023/11/27 07:47:34;;;;;;;23.00;3.33;;;4.00;99.90;;;;;;5034969;28;20162;-79
2023/11/27 07:50:00;;;;;;;21.95;3.33;;;4.00;99.90;;;;;;5038502;28;20161;-79
2023/11/27 07:52:27;;;;;;;20.70;2.70;;;4.00;99.90;;;;;;5039166;28;20160;-79
2023/11/27 07:54:53;;;;;;;23.38;3.33;;;4.10;99.90;;;;;;5038777;28;20196;-79
2023/11/27 07:57:19;;;;;;;30.95;3.45;;;4.10;99.90;;;;;;5038558;28;20589;-79
2023/11/27 07:59:44;;;;;;;21.77;4.03;;;4.00;99.90;;;;;;5038586;28;20183;-79
2023/11/27 08:02:11;;;;;;;22.33;3.27;;;4.10;99.90;;;;;;5038984;28;20165;-79
2023/11/27 08:04:37;;;;;;;21.83;3.00;;;4.00;99.90;;;;;;5038460;28;20187;-79
2023/11/27 08:07:02;;;;;;;22.30;3.20;;;4.10;99.90;;;;;;5038845;28;20623;-79
2023/11/27 08:09:28;;;;;;;21.53;2.77;;;4.10;99.90;;;;;;5038647;28;20201;-79
2023/11/27 08:11:54;;;;;;;20.93;2.87;;;4.00;99.90;;;;;;5038468;28;20177;-79
2023/11/27 08:14:21;;;;;;;22.60;3.20;;;4.00;99.90;;;;;;5038367;28;20290;-79
2023/11/27 08:16:48;;;;;;;21.80;2.95;;;4.10;99.90;;;;;;5020913;28;20181;-79
2023/11/27 08:19:16;;;;;;;23.02;3.03;;;4.10;99.90;;;;;;5038240;28;20162;-79
2023/11/27 08:21:44;;;;;;;21.30;3.03;;;4.10;99.90;;;;;;5038093;28;20158;-79
2023/11/27 08:24:12;;;;;;;20.42;2.58;;;4.00;99.90;;;;;;5038030;28;20265;-79
2023/11/27 08:26:41;;;;;;;20.65;2.78;;;4.10;99.90;;;;;;5037637;28;20230;-79
2023/11/27 08:29:15;;;;;;;23.17;2.78;;;4.00;99.90;;;;;;5037740;28;20185;-79
2023/11/27 08:31:42;;;;;;;24.05;3.28;;;4.00;99.90;;;;;;5037871;28;20153;-79
2023/11/27 08:34:07;;;;;;;21.52;3.15;;;4.00;99.90;;;;;;5037781;28;20589;-79
2023/11/27 08:36:33;;;;;;;21.00;2.47;;;4.00;99.90;;;;;;5038031;28;20205;-79
2023/11/27 08:38:59;;;;;;;21.80;2.87;;;4.10;99.90;;;;;;5037759;28;20166;-79
2023/11/27 08:41:25;;;;;;;21.20;2.63;;;4.00;99.90;;;;;;5038366;28;20162;-79
2023/11/27 08:43:50;;;;;;;23.13;2.90;;;4.10;99.90;;;;;;5038089;28;20190;-78
2023/11/27 08:46:17;;;;;;;20.37;2.60;;;4.10;99.90;;;;;;5038188;28;20421;-79
2023/11/27 08:48:42;;;;;;;21.17;2.22;;;4.10;99.90;;;;;;5037579;28;20228;-79
2023/11/27 08:51:11;;;;;;;20.67;2.60;;;4.10;99.90;;;;;;5037354;28;20169;-80
2023/11/27 08:53:39;;;;;;;21.38;2.95;;;4.10;99.90;;;;;;5037524;28;20286;-79
2023/11/27 08:56:06;;;;;;;19.80;2.28;;;4.10;99.90;;;;;;5037321;28;20242;-79
2023/11/27 08:58:32;;;;;;;22.08;2.45;;;4.20;99.90;;;;;;5019711;28;20208;-79
2023/11/27 09:00:57;;;;;;;20.90;2.73;;;4.20;99.90;;;;;;5036847;28;20172;-79
2023/11/27 09:03:23;;;;;;;21.60;2.43;;;4.20;99.90;;;;;;5037408;28;20555;-79
2023/11/27 09:05:49;;;;;;;19.90;1.88;;;4.30;99.90;;;;;;5037524;28;20194;-79
2023/11/27 09:08:15;;;;;;;20.30;2.37;;;4.20;99.90;;;;;;5037120;28;20169;-79
2023/11/27 09:10:41;;;;;;;22.03;1.93;;;4.30;99.90;;;;;;5036831;28;20174;-80
2023/11/27 09:13:07;;;;;;;19.87;1.60;;;4.20;99.90;;;;;;5036539;28;20457;-79
2023/11/27 09:15:36;;;;;;;21.40;2.40;;;4.30;99.90;;;;;;5036791;28;20489;-79
2023/11/27 09:18:02;;;;;;;20.08;1.92;;;4.30;99.90;;;;;;5019282;28;20834;-79
2023/11/27 09:20:27;;;;;;;20.50;2.10;;;4.30;99.90;;;;;;5037488;28;20194;-79
2023/11/27 09:22:53;;;;;;;20.80;1.90;;;4.30;99.90;;;;;;5037583;28;20173;-80
2023/11/27 09:25:21;;;;;;;20.50;2.07;;;4.40;99.90;;;;;;5037419;28;20262;-79
2023/11/27 09:27:46;;;;;;;20.60;1.90;;;4.30;99.90;;;;;;5019176;28;20217;-80
2023/11/27 09:30:12;;;;;;;19.80;1.50;;;4.30;99.90;;;;;;5036680;28;20169;-80
2023/11/27 09:32:39;;;;;;;20.47;1.90;;;4.30;99.90;;;;;;5036659;28;20670;-80
2023/11/27 09:35:10;;;;;;;21.08;2.17;;;4.30;99.90;;;;;;5036780;28;20276;-80
2023/11/27 09:37:37;;;;;;;20.88;2.40;;;4.30;99.90;;;;;;5037904;28;20148;-79
2023/11/27 09:40:05;;;;;;;21.58;2.25;;;4.40;99.90;;;;;;5037047;28;20190;-79
2023/11/27 09:42:38;;;;;;;21.15;1.77;;;4.40;99.90;;;;;;5036429;28;20165;-79
2023/11/27 09:45:10;;;;;;;20.17;1.70;;;4.40;99.90;;;;;;5036904;28;20187;-79
2023/11/27 09:47:43;;;;;;;19.92;1.42;;;4.40;99.90;;;;;;5036745;28;20146;-80
2023/11/27 09:50:12;;;;;;;20.60;1.98;;;4.40;99.90;;;;;;5036467;28;20160;-80
2023/11/27 09:52:59;;;;;;;20.00;1.85;;;4.40;99.90;;;;;;5018443;28;20177;-79
2023/11/27 09:55:28;;;;;;;20.08;1.83;;;4.50;99.90;;;;;;5018580;28;20193;-80
2023/11/27 09:57:54;;;;;;;20.00;2.20;;;4.50;99.90;;;;;;5035898;28;20241;-80
2023/11/27 10:00:21;;;;;;;21.13;2.27;;;4.40;99.90;;;;;;5036283;28;20632;-79
2023/11/27 10:02:51;;;;;;;21.73;3.03;;;4.40;99.90;;;;;;5035995;28;20946;-79
2023/11/27 10:05:18;;;;;;;23.83;2.80;;;4.40;99.90;;;;;;5036357;28;20251;-79
2023/11/27 10:07:49;;;;;;;21.25;2.97;;;4.40;99.90;;;;;;5036094;28;20166;-79
2023/11/27 10:10:25;;;;;;;21.17;2.17;;;4.40;99.90;;;;;;5035865;28;20631;-80
2023/11/27 10:13:06;;;;;;;20.05;1.90;;;4.40;99.90;;;;;;5017711;28;20634;-79
2023/11/27 10:15:32;;;;;;;23.30;1.85;;;4.50;99.90;;;;;;5036406;28;20178;-79
2023/11/27 10:17:59;;;;;;;21.50;2.27;;;4.40;99.90;;;;;;5036164;28;20259;-79
2023/11/27 10:20:26;;;;;;;20.00;1.80;;;4.40;99.90;;;;;;5035729;28;20396;-79
2023/11/27 10:23:08;;;;;;;20.25;1.70;;;4.40;99.90;;;;;;5035650;28;20157;-79
2023/11/27 10:25:34;;;;;;;19.70;1.60;;;4.40;99.90;;;;;;5017792;28;20188;-79
2023/11/27 10:28:02;;;;;;;20.20;2.33;;;4.50;99.90;;;;;;5035100;28;20192;-80
2023/11/27 10:30:31;;;;;;;21.90;2.40;;;4.50;99.90;;;;;;5017860;28;20200;-80
2023/11/27 10:32:57;;;;;;;20.55;1.95;;;4.40;99.90;;;;;;5017712;28;20661;-79
2023/11/27 10:35:25;;;;;;;21.15;2.10;;;4.50;99.90;;;;;;5035960;28;20551;-79
2023/11/27 10:37:55;;;;;;;22.60;2.10;;;4.40;99.90;;;;;;5035698;28;20158;-79
2023/11/27 10:40:22;;;;;;;21.30;1.77;;;4.40;99.90;;;;;;5035663;28;20158;-80
2023/11/27 10:42:49;;;;;;;19.77;1.80;;;4.40;99.90;;;;;;5035789;28;20158;-80
2023/11/27 10:45:17;;;;;;;21.02;2.05;;;4.40;99.90;;;;;;5035985;28;20186;-79
2023/11/27 10:47:49;;;;;;;20.00;1.90;;;4.50;99.90;;;;;;5036005;28;20657;-80
2023/11/27 10:50:16;;;;;;;21.73;2.40;;;4.50;99.90;;;;;;5018058;28;20177;-79
2023/11/27 10:52:49;;;;;;;21.40;2.22;;;4.50;99.90;;;;;;5035410;28;20193;-79
2023/11/27 10:55:19;;;;;;;21.75;2.05;;;4.40;99.90;;;;;;5035683;28;20204;-79
2023/11/27 10:57:49;;;;;;;21.23;2.00;;;4.50;99.90;;;;;;5036047;28;20615;-80
2023/11/27 11:00:29;;;;;;;22.70;2.15;;;4.50;99.90;;;;;;5035624;28;20170;-80
2023/11/27 11:03:02;;;;;;;20.38;1.63;;;4.50;99.90;;;;;;5035806;28;20149;-80
2023/11/27 11:05:41;;;;;;;23.60;1.85;;;4.50;99.90;;;;;;5017833;28;20257;-79
2023/11/27 11:08:08;;;;;;;20.45;2.00;;;4.50;99.90;;;;;;5035472;28;20150;-80
2023/11/27 11:10:36;;;;;;;20.65;2.15;;;4.50;99.90;;;;;;5035497;28;20623;-79
2023/11/27 11:13:02;;;;;;;20.90;1.80;;;4.60;99.90;;;;;;5035304;28;20539;-79
2023/11/27 11:15:44;;;;;;;19.88;2.25;;;4.60;99.90;;;;;;5017735;28;20197;-79
2023/11/27 11:18:34;;;;;;;21.33;2.63;;;4.60;99.90;;;;;;5018071;28;20177;-80
2023/11/27 11:21:12;;;;;;;23.20;2.85;;;4.60;99.90;;;;;;5035623;28;20142;-80
2023/11/27 11:24:08;;;;;;;20.08;1.90;;;4.60;99.90;;;;;;5036780;28;20186;-80
2023/11/27 11:26:57;;;;;;;20.30;1.60;;;4.50;99.90;;;;;;5040013;28;20231;-79
2023/11/27 11:29:32;;;;;;;19.77;1.45;;;4.50;99.90;;;;;;5039504;28;20233;-79
2023/11/27 11:32:04;;;;;;;21.40;1.52;;;4.50;99.90;;;;;;5039578;28;20232;-79
2023/11/27 11:34:35;;;;;;;20.05;2.13;;;4.70;99.90;;;;;;5038910;28;20241;-80
2023/11/27 11:37:03;;;;;;;20.02;1.75;;;4.70;99.90;;;;;;5039450;28;20155;-79
2023/11/27 11:39:33;;;;;;;20.38;1.58;;;4.60;99.90;;;;;;5039773;28;20162;-80
2023/11/27 11:42:01;;;;;;;20.58;1.92;;;4.60;99.90;;;;;;5038817;28;20626;-80
2023/11/27 11:44:31;;;;;;;19.58;1.23;;;4.60;99.90;;;;;;5021115;28;20308;-80
2023/11/27 11:46:57;;;;;;;20.10;1.85;;;4.60;99.90;;;;;;5039546;28;20162;-82
2023/11/27 11:49:24;;;;;;;19.57;1.70;;;4.80;99.90;;;;;;5039441;28;20172;-82
2023/11/27 11:52:05;;;;;;;22.50;2.25;;;4.70;99.90;;;;;;5039343;28;20153;-79
2023/11/27 11:54:38;;;;;;;19.50;1.50;;;4.70;99.90;;;;;;5039102;28;20185;-79
2023/11/27 11:57:23;;;;;;;20.20;1.50;;;4.70;99.90;;;;;;5038914;28;20193;-79
2023/11/27 11:59:50;;;;;;;19.75;1.60;;;4.60;99.90;;;;;;5039035;28;20455;-79
2023/11/27 12:02:24;;;;;;;20.25;1.80;;;4.60;99.90;;;;;;5020895;28;20256;-80
2023/11/27 12:04:51;;;;;;;23.15;2.38;;;4.60;99.90;;;;;;5039227;28;20205;-80
2023/11/27 12:07:18;;;;;;;20.10;1.83;;;4.70;99.90;;;;;;5038734;28;20216;-80
2023/11/27 12:09:47;;;;;;;19.92;1.58;;;4.60;99.90;;;;;;5038872;28;20261;-80
2023/11/27 12:12:15;;;;;;;21.15;1.77;;;4.60;99.90;;;;;;5038251;28;20257;-79
2023/11/27 12:14:42;;;;;;;19.95;1.60;;;4.70;99.90;;;;;;5038435;28;20196;-79
2023/11/27 12:17:08;;;;;;;20.83;2.05;;;4.80;99.90;;;;;;5039123;28;20241;-79
2023/11/27 12:19:35;;;;;;;20.57;1.43;;;4.70;99.90;;;;;;5038395;28;20627;-80
2023/11/27 12:22:01;;;;;;;20.80;2.33;;;4.70;99.90;;;;;;5038202;28;20947;-79
2023/11/27 12:24:27;;;;;;;20.80;2.03;;;4.70;99.90;;;;;;5037676;28;20663;-80
2023/11/27 12:27:04;;;;;;;21.15;2.00;;;4.80;99.90;;;;;;5037593;28;20231;-80
2023/11/27 12:29:30;;;;;;;20.85;1.80;;;4.80;99.90;;;;;;5038208;28;20236;-80
2023/11/27 12:31:55;;;;;;;20.47;2.00;;;4.90;99.90;;;;;;5038220;28;20198;-80
2023/11/27 12:34:24;;;;;;;20.27;1.70;;;4.80;99.90;;;;;;5037780;28;20248;-80
2023/11/27 12:36:52;;;;;;;20.40;1.70;;;4.80;99.90;;;;;;5037726;28;20777;-79
2023/11/27 12:39:25;;;;;;;20.60;1.55;;;4.70;99.90;;;;;;5038026;28;20220;-80
2023/11/27 12:42:01;;;;;;;20.55;1.73;;;4.70;99.90;;;;;;5020158;28;20166;-80
2023/11/27 12:44:30;;;;;;;22.25;2.10;;;4.70;99.90;;;;;;5037938;28;20255;-79
2023/11/27 12:46:56;;;;;;;20.58;2.10;;;4.70;99.90;;;;;;5037780;28;20146;-79
2023/11/27 12:49:23;;;;;;;20.08;2.10;;;4.80;99.90;;;;;;5037671;28;20162;-80
2023/11/27 12:51:57;;;;;;;20.70;1.85;;;4.80;99.90;;;;;;5037914;28;20192;-80
2023/11/27 12:54:23;;;;;;;20.83;1.77;;;4.80;99.90;;;;;;5019525;28;20186;-80